Volcan Del Teide — EAIE — position and weather

sailwx.info

Track history (hours):
 
Tides and Currents Weather Stations Pressure Air Temp Water Temp Dewpoint Dewpoint Depression Visibility Wind Speed Wind Dir Waves Ship Positions

Volcan Del Teide

Last reported at 2018-May-24 09:00 UTC. Time now 2018-May-25 09:08 UTC.
Position N 28°28' W 016°15'.

Length 175 m; draft 6.5 m.

Type: Passenger vessel. MMSI: 225416000.

Date/timePositionNaut miles runAvg speedWind from/ knotsBaromVisibWave heightAir tempDewpointWater temp
2018-May-24 09:00N 28°28' W 016°15'3 6.2
2018-May-24 08:30N 28°28' W 016°11'1223.8
2018-May-24 08:01N 28°23' W 015°59'1223.5
2018-May-24 07:30N 28°18' W 015°47'1223.4
2018-May-24 07:00N 28°15' W 015°34'1121.3
2018-May-24 06:30N 28°10' W 015°23'1 2.0
2018-May-24 06:00N 28°10' W 015°24'0 0.0
2018-May-24 05:30N 28°10' W 015°24'0 0.0
2018-May-24 04:57N 28°10' W 015°24'0 0.0
2018-May-24 04:30N 28°10' W 015°24'0 0.0
2018-May-24 04:01N 28°10' W 015°24'0 0.0
2018-May-24 03:30N 28°10' W 015°24'0 0.0
2018-May-24 02:59N 28°10' W 015°24'0 0.0
2018-May-24 02:30N 28°10' W 015°24'0 0.0
2018-May-24 02:00N 28°10' W 015°24'0 0.0
2018-May-24 01:26N 28°10' W 015°24'0 0.0
2018-May-24 01:00N 28°10' W 015°24'0 0.0
2018-May-24 00:30N 28°10' W 015°24'0 0.0
2018-May-24 00:00N 28°10' W 015°24'0 0.0
2018-May-23 23:29N 28°10' W 015°24'0 0.0
2018-May-23 23:00N 28°10' W 015°24'0 0.0
2018-May-23 22:23N 28°10' W 015°24'0 0.0
2018-May-23 21:59N 28°10' W 015°24'0 0.0
2018-May-23 21:30N 28°10' W 015°24'0 0.0
2018-May-23 21:00N 28°10' W 015°24'0 0.0
2018-May-23 20:30N 28°10' W 015°24'0 0.0
2018-May-23 20:00N 28°10' W 015°24'0 0.0
2018-May-23 19:29N 28°10' W 015°24'0 0.0
2018-May-23 19:00N 28°10' W 015°24'0 0.0
2018-May-23 18:29N 28°10' W 015°24'0 0.0
2018-May-23 18:00N 28°10' W 015°24'0 0.0
2018-May-23 17:30N 28°10' W 015°24'0 0.0
2018-May-23 17:01N 28°10' W 015°24'0 0.0
2018-May-23 16:30N 28°10' W 015°24'0 0.0
2018-May-23 16:00N 28°10' W 015°24'0 0.0
2018-May-23 15:30N 28°10' W 015°24'0 0.0
2018-May-23 15:00N 28°10' W 015°24'0 0.0
2018-May-23 14:30N 28°10' W 015°24'0 0.0
2018-May-23 14:01N 28°10' W 015°24'0 0.0
2018-May-23 13:30N 28°10' W 015°24'0 0.0
2018-May-23 12:58N 28°10' W 015°24'0 0.0
2018-May-23 12:30N 28°10' W 015°24'0 0.0
2018-May-23 12:00N 28°10' W 015°24'0 0.0
2018-May-23 11:30N 28°10' W 015°24'0 0.0
2018-May-23 11:00N 28°10' W 015°24'0 0.0
2018-May-23 10:28N 28°10' W 015°24'0 0.0
2018-May-23 10:00N 28°10' W 015°24'0 0.0
2018-May-23 09:30N 28°10' W 015°24'1 1.6
2018-May-23 09:00N 28°09' W 015°23'1020.8
2018-May-23 08:31N 28°15' W 015°33'1223.4
2018-May-23 08:00N 28°19' W 015°45'1223.8
2018-May-23 07:31N 28°23' W 015°58'1224.3
2018-May-23 07:00N 28°28' W 016°11'3 6.5
2018-May-23 06:30N 28°28' W 016°15'0 0.0
2018-May-23 06:00N 28°28' W 016°15'0 0.0
2018-May-23 05:30N 28°28' W 016°15'0 0.0
2018-May-23 05:00N 28°28' W 016°15'0 0.0
2018-May-23 04:30N 28°28' W 016°15'0 0.0
2018-May-23 04:00N 28°28' W 016°15'0 0.0
2018-May-23 03:29N 28°28' W 016°15'0 0.0
2018-May-23 03:00N 28°28' W 016°15'0 0.0
2018-May-23 02:30N 28°28' W 016°15'0 0.0
2018-May-23 02:00N 28°28' W 016°15'0 0.0
2018-May-23 01:30N 28°28' W 016°15'0 0.0
2018-May-23 01:00N 28°28' W 016°15'0 0.0
2018-May-23 00:30N 28°28' W 016°15'0 0.0
2018-May-23 00:00N 28°28' W 016°15'0 0.0
2018-May-22 23:30N 28°28' W 016°15'0 0.0
2018-May-22 23:00N 28°28' W 016°15'0 0.0
2018-May-22 22:30N 28°28' W 016°15'0 0.0
2018-May-22 22:00N 28°28' W 016°15'0 0.8
2018-May-22 21:30N 28°29' W 016°14'815.1
2018-May-22 21:01N 28°26' W 016°06'1223.3
2018-May-22 20:30N 28°22' W 015°54'1223.4
2018-May-22 20:01N 28°18' W 015°42'1223.2
2018-May-22 19:30N 28°14' W 015°29'612.2
2018-May-22 19:00N 28°09' W 015°24'0 0.2
2018-May-22 18:30N 28°10' W 015°24'0 0.0
2018-May-22 18:00N 28°10' W 015°24'0 0.0
2018-May-22 17:30N 28°10' W 015°24'0 0.0
2018-May-22 17:00N 28°10' W 015°24'0 0.0
2018-May-22 16:30N 28°10' W 015°24'0 0.0
2018-May-22 16:00N 28°10' W 015°24'0 0.0
2018-May-22 15:30N 28°10' W 015°24'0 0.0
2018-May-22 15:00N 28°10' W 015°24'0 0.0
2018-May-22 14:30N 28°10' W 015°24'0 0.0
2018-May-22 14:00N 28°10' W 015°24'0 0.0
2018-May-22 13:29N 28°10' W 015°24'2 4.7
2018-May-22 13:00N 28°10' W 015°21'1223.7
2018-May-22 12:30N 28°15' W 015°10'1224.1
2018-May-22 12:00N 28°21' W 014°57'1223.9
2018-May-22 11:30N 28°26' W 014°45'3923.9
2018-May-22 09:53N 28°44' W 014°06'923.9
2018-May-22 09:30N 28°47' W 013°56'1223.9
2018-May-22 09:01N 28°51' W 013°44'1220.6
2018-May-22 08:25N 28°58' W 013°32'0 1.1
2018-May-22 07:59N 28°58' W 013°32'0 0.0
2018-May-22 07:27N 28°58' W 013°32'0 0.0
2018-May-22 06:59N 28°58' W 013°32'0 0.0
2018-May-22 06:27N 28°58' W 013°32'0 0.0
2018-May-22 06:00N 28°58' W 013°32'0 0.2
2018-May-22 05:28N 28°58' W 013°32'511.5
2018-May-22 05:00N 28°55' W 013°36'5723.6
2018-May-22 02:35N 28°32' W 014°36'323.8
2018-May-22 02:28N 28°31' W 014°39'1123.6
2018-May-22 02:01N 28°26' W 014°50'1223.5
2018-May-22 01:31N 28°20' W 015°01'1223.2
2018-May-22 01:00N 28°14' W 015°13'1121.6
2018-May-22 00:30N 28°09' W 015°24'1 1.3
2018-May-22 00:00N 28°10' W 015°24'0 0.0
2018-May-21 23:30N 28°10' W 015°24'0 0.0
2018-May-21 23:01N 28°10' W 015°24'0 0.0
2018-May-21 22:30N 28°10' W 015°24'0 0.0
2018-May-21 21:58N 28°10' W 015°24'1 2.9
2018-May-21 21:30N 28°11' W 015°23'1223.4
2018-May-21 21:00N 28°15' W 015°35'1223.7
2018-May-21 20:31N 28°19' W 015°48'1223.8
2018-May-21 20:00N 28°24' W 016°00'1224.3
2018-May-21 19:30N 28°29' W 016°13'1 2.7
2018-May-21 19:00N 28°28' W 016°15'0 0.0
2018-May-21 18:30N 28°28' W 016°15'0 0.0
2018-May-21 18:00N 28°28' W 016°15'0 0.8
2018-May-21 17:31N 28°29' W 016°14'918.5
2018-May-21 17:01N 28°26' W 016°04'1223.8
2018-May-21 16:31N 28°21' W 015°52'1223.9
2018-May-21 16:01N 28°17' W 015°39'1223.6
2018-May-21 15:31N 28°14' W 015°26'5 9.0
2018-May-21 15:00N 28°10' W 015°24'0 0.0
2018-May-21 14:30N 28°10' W 015°24'0 0.0
2018-May-21 14:00N 28°10' W 015°24'0 0.0
2018-May-21 13:30N 28°10' W 015°24'0 0.0
2018-May-21 13:00N 28°10' W 015°24'0 0.0
2018-May-21 12:30N 28°10' W 015°24'0 0.0
2018-May-21 12:00N 28°10' W 015°24'0 0.0
2018-May-21 11:30N 28°10' W 015°24'0 0.0
2018-May-21 11:00N 28°10' W 015°24'0 0.0
2018-May-21 10:30N 28°10' W 015°24'0 0.0
2018-May-21 10:00N 28°10' W 015°24'0 0.3
2018-May-21 09:30N 28°09' W 015°24'3 6.1
2018-May-21 09:01N 28°12' W 015°25'1223.7
2018-May-21 08:30N 28°16' W 015°38'1223.6
2018-May-21 08:01N 28°20' W 015°50'1223.7
2018-May-21 07:31N 28°25' W 016°03'1020.9
2018-May-21 07:00N 28°29' W 016°14'1 1.6
2018-May-21 06:30N 28°28' W 016°15'0 0.0
2018-May-21 06:00N 28°28' W 016°15'0 0.0
2018-May-21 05:30N 28°28' W 016°15'0 0.0
2018-May-21 05:00N 28°28' W 016°15'0 0.0
2018-May-21 04:29N 28°28' W 016°15'0 0.0
2018-May-21 04:00N 28°28' W 016°15'0 0.0
2018-May-21 03:30N 28°28' W 016°15'0 0.0
2018-May-21 03:00N 28°28' W 016°15'0 0.0
2018-May-21 02:30N 28°28' W 016°15'0 0.0
2018-May-21 02:00N 28°28' W 016°15'0 0.0
2018-May-21 01:30N 28°28' W 016°15'0 0.0
2018-May-21 01:00N 28°28' W 016°15'0 0.0
2018-May-21 00:30N 28°28' W 016°15'0 0.0
2018-May-21 00:00N 28°28' W 016°15'3 5.7
2018-May-20 23:31N 28°28' W 016°11'1223.9
2018-May-20 23:01N 28°23' W 015°59'1223.9
2018-May-20 22:31N 28°19' W 015°46'1223.5
2018-May-20 22:01N 28°15' W 015°34'1121.8
2018-May-20 21:30N 28°10' W 015°23'1 2.4
2018-May-20 21:00N 28°10' W 015°24'0 0.0
2018-May-20 20:30N 28°10' W 015°24'0 0.0
2018-May-20 20:00N 28°10' W 015°24'0 0.6
2018-May-20 19:30N 28°09' W 015°24'510.1
2018-May-20 19:00N 28°11' W 015°19'1224.0
2018-May-20 18:31N 28°17' W 015°07'1224.0
2018-May-20 18:01N 28°22' W 014°55'1223.6
2018-May-20 17:30N 28°27' W 014°43'3923.6
2018-May-20 15:51N 28°45' W 014°03'1023.6
2018-May-20 15:26N 28°48' W 013°52'1023.6
2018-May-20 15:01N 28°52' W 013°42'1020.9
2018-May-20 14:30N 28°58' W 013°32'1 1.2
2018-May-20 14:00N 28°58' W 013°32'0 0.0
2018-May-20 13:30N 28°58' W 013°32'0 0.0
2018-May-20 12:58N 28°58' W 013°32'2 4.2
2018-May-20 12:30N 28°58' W 013°29'1224.5
2018-May-20 12:00N 29°08' W 013°21'  
2018-May-17 12:24N 28°47' W 015°50'820.9
2018-May-17 12:00N 28°41' W 015°56'1019.9
2018-May-17 11:30N 28°34' W 016°03'918.6
2018-May-17 11:00N 28°29' W 016°12'2 4.9
2018-May-17 10:31N 28°28' W 016°15'0 0.0
2018-May-17 10:00N 28°28' W 016°15'0 0.0
2018-May-17 09:30N 28°28' W 016°15'1 2.6
2018-May-17 09:00N 28°29' W 016°13'918.4
2018-May-17 08:30N 28°25' W 016°04'1020.1
2018-May-17 08:00N 28°21' W 015°53'28 8.2
2018-May-17 04:34N 28°10' W 015°24'0 0.1
2018-May-17 04:30N 28°10' W 015°24'0 0.0
2018-May-17 04:00N 28°10' W 015°24'0 0.0
2018-May-17 03:29N 28°10' W 015°24'0 0.0
2018-May-17 03:00N 28°10' W 015°24'0 0.0
2018-May-17 02:30N 28°10' W 015°24'0 0.0
2018-May-17 02:00N 28°10' W 015°24'0 0.0
2018-May-17 01:29N 28°10' W 015°24'0 0.0
2018-May-17 01:00N 28°10' W 015°24'0 0.0
2018-May-17 00:29N 28°10' W 015°24'0 0.0
2018-May-17 00:00N 28°10' W 015°24'0 0.0
2018-May-16 23:30N 28°10' W 015°24'0 0.0
2018-May-16 23:00N 28°10' W 015°24'0 0.0
2018-May-16 22:29N 28°10' W 015°24'0 0.0
2018-May-16 22:00N 28°10' W 015°24'0 0.0
2018-May-16 21:30N 28°10' W 015°24'0 0.0
2018-May-16 21:01N 28°10' W 015°24'0 0.0
2018-May-16 20:30N 28°10' W 015°24'0 0.0
2018-May-16 20:01N 28°10' W 015°24'0 0.0
2018-May-16 19:30N 28°10' W 015°24'0 0.0
2018-May-16 19:00N 28°10' W 015°24'0 0.0
2018-May-16 18:30N 28°10' W 015°24'0 0.0
2018-May-16 17:58N 28°10' W 015°24'0 0.0
2018-May-16 17:30N 28°10' W 015°24'0 0.0
2018-May-16 16:59N 28°10' W 015°24'0 0.0
2018-May-16 16:30N 28°10' W 015°24'0 0.0
2018-May-16 15:59N 28°10' W 015°24'2 4.8
2018-May-16 15:30N 28°10' W 015°21'1020.5
2018-May-16 15:00N 28°14' W 015°11'1020.8
2018-May-16 14:30N 28°19' W 015°01'1020.6
2018-May-16 14:00N 28°24' W 014°50'1020.3
2018-May-16 13:30N 28°29' W 014°40'11 1.0
2018-May-16 02:12N 28°34' W 014°29'418.3
2018-May-16 01:59N 28°32' W 014°33'918.2
2018-May-16 01:30N 28°28' W 014°42'917.8
2018-May-16 01:00N 28°24' W 014°51'918.5
2018-May-16 00:30N 28°20' W 015°00'918.6
2018-May-16 00:00N 28°16' W 015°10'918.4
2018-May-15 23:30N 28°12' W 015°19'5 9.8
2018-May-15 23:00N 28°10' W 015°24'0 0.0
2018-May-15 22:30N 28°10' W 015°24'0 0.0
2018-May-15 21:59N 28°10' W 015°24'0 0.0
2018-May-15 21:31N 28°10' W 015°24'0 0.0
2018-May-15 21:01N 28°10' W 015°24'0 0.0
2018-May-15 20:30N 28°10' W 015°24'0 0.0
2018-May-15 20:00N 28°10' W 015°24'0 0.0
2018-May-15 19:30N 28°10' W 015°24'0 0.0
2018-May-15 19:00N 28°10' W 015°24'0 0.0
2018-May-15 18:30N 28°10' W 015°24'0 0.0
2018-May-15 17:58N 28°10' W 015°24'0 0.0
2018-May-15 17:30N 28°10' W 015°24'0 0.0
2018-May-15 17:00N 28°10' W 015°24'0 0.0
2018-May-15 16:30N 28°10' W 015°24'0 0.3
2018-May-15 16:00N 28°09' W 015°24'511.0
2018-May-15 15:30N 28°11' W 015°18'1020.1
2018-May-15 15:00N 28°16' W 015°08'1020.1
2018-May-15 14:30N 28°20' W 014°58'1020.0
2018-May-15 14:00N 28°25' W 014°48'1119.6
2018-May-15 13:28N 28°30' W 014°37'2919.6
2018-May-15 11:58N 28°43' W 014°07'1019.5
2018-May-15 11:27N 28°47' W 013°57'1020.1
2018-May-15 10:58N 28°50' W 013°46'1020.4
2018-May-15 10:30N 28°55' W 013°36'611.1
2018-May-15 09:59N 28°58' W 013°32'0 0.0
2018-May-15 09:24N 28°58' W 013°32'0 0.0
2018-May-15 08:55N 28°58' W 013°32'0 0.0
2018-May-15 08:28N 28°58' W 013°32'0 0.0
2018-May-15 07:58N 28°58' W 013°32'0 0.0
2018-May-15 07:19N 28°58' W 013°32'0 0.0
2018-May-15 07:00N 28°58' W 013°32'0 0.0
2018-May-15 06:30N 28°58' W 013°32'0 0.0
2018-May-15 05:55N 28°58' W 013°32'0 1.0
2018-May-15 05:28N 28°58' W 013°32'5 9.8
2018-May-15 04:59N 28°55' W 013°36'1020.0
2018-May-15 04:30N 28°50' W 013°45'1518.8
2018-May-15 03:43N 28°46' W 014°02'2518.1
2018-May-15 02:20N 28°34' W 014°27'618.2
2018-May-15 02:00N 28°32' W 014°33'918.2
2018-May-15 01:30N 28°27' W 014°42'918.3
2018-May-15 00:59N 28°23' W 014°52'918.9
2018-May-15 00:30N 28°19' W 015°01'918.7
2018-May-15 00:00N 28°14' W 015°10'917.8
2018-May-14 23:30N 28°10' W 015°19'5 9.0
2018-May-14 23:00N 28°10' W 015°24'0 0.0
2018-May-14 22:30N 28°10' W 015°24'0 0.0
2018-May-14 22:00N 28°10' W 015°24'0 0.0
2018-May-14 21:30N 28°10' W 015°24'0 0.0
2018-May-14 21:00N 28°10' W 015°24'0 0.0
2018-May-14 20:30N 28°10' W 015°24'0 0.0
2018-May-14 20:00N 28°10' W 015°24'0 0.0
2018-May-14 19:30N 28°10' W 015°24'0 0.0
2018-May-14 19:00N 28°10' W 015°24'0 0.1
2018-May-14 18:30N 28°10' W 015°24'2 4.7
2018-May-14 18:00N 28°12' W 015°24'918.9
2018-May-14 17:31N 28°15' W 015°34'714.7
2018-May-14 17:01N 28°18' W 015°42'816.9
2018-May-14 16:31N 28°19' W 015°51'917.3
2018-May-14 16:01N 28°23' W 016°00'1219.5
2018-May-14 15:23N 28°28' W 016°13'2 4.3
2018-May-14 15:00N 28°28' W 016°15'0 0.0
2018-May-14 14:30N 28°28' W 016°15'0 0.0
2018-May-14 13:56N 28°28' W 016°15'0 0.0
2018-May-14 13:25N 28°28' W 016°15'0 0.0
2018-May-14 13:00N 28°28' W 016°15'0 0.0
2018-May-14 12:31N 28°28' W 016°15'0 0.0
2018-May-14 12:01N 28°28' W 016°15'0 0.0
2018-May-14 11:31N 28°28' W 016°15'0 0.0
2018-May-14 11:00N 28°28' W 016°15'0 0.0
2018-May-14 10:30N 28°28' W 016°15'0 0.0
2018-May-14 10:00N 28°28' W 016°15'0 0.0
2018-May-14 09:31N 28°28' W 016°15'0 0.0
2018-May-14 09:01N 28°28' W 016°15'  
Track history (hours):
 
Tides and Currents Weather Stations Pressure Air Temp Water Temp Dewpoint Dewpoint Depression Visibility Wind Speed Wind Dir Waves Ship Positions

Volcan Del Teide

Last reported at 2018-May-24 09:00 UTC. Time now 2018-May-25 09:08 UTC.
Position N 28°28' W 016°15'.

Length 175 m; draft 6.5 m.

Type: Passenger vessel. MMSI: 225416000.

Date/timePositionNaut miles runAvg speedWind from/ knotsBaromVisibWave heightAir tempDewpointWater temp
2018-May-24 09:00N 28°28' W 016°15'3 6.2
2018-May-24 08:30N 28°28' W 016°11'1223.8
2018-May-24 08:01N 28°23' W 015°59'1223.5
2018-May-24 07:30N 28°18' W 015°47'1223.4
2018-May-24 07:00N 28°15' W 015°34'1121.3
2018-May-24 06:30N 28°10' W 015°23'1 2.0
2018-May-24 06:00N 28°10' W 015°24'0 0.0
2018-May-24 05:30N 28°10' W 015°24'0 0.0
2018-May-24 04:57N 28°10' W 015°24'0 0.0
2018-May-24 04:30N 28°10' W 015°24'0 0.0
2018-May-24 04:01N 28°10' W 015°24'0 0.0
2018-May-24 03:30N 28°10' W 015°24'0 0.0
2018-May-24 02:59N 28°10' W 015°24'0 0.0
2018-May-24 02:30N 28°10' W 015°24'0 0.0
2018-May-24 02:00N 28°10' W 015°24'0 0.0
2018-May-24 01:26N 28°10' W 015°24'0 0.0
2018-May-24 01:00N 28°10' W 015°24'0 0.0
2018-May-24 00:30N 28°10' W 015°24'0 0.0
2018-May-24 00:00N 28°10' W 015°24'0 0.0
2018-May-23 23:29N 28°10' W 015°24'0 0.0
2018-May-23 23:00N 28°10' W 015°24'0 0.0
2018-May-23 22:23N 28°10' W 015°24'0 0.0
2018-May-23 21:59N 28°10' W 015°24'0 0.0
2018-May-23 21:30N 28°10' W 015°24'0 0.0
2018-May-23 21:00N 28°10' W 015°24'0 0.0
2018-May-23 20:30N 28°10' W 015°24'0 0.0
2018-May-23 20:00N 28°10' W 015°24'0 0.0
2018-May-23 19:29N 28°10' W 015°24'0 0.0
2018-May-23 19:00N 28°10' W 015°24'0 0.0
2018-May-23 18:29N 28°10' W 015°24'0 0.0
2018-May-23 18:00N 28°10' W 015°24'0 0.0
2018-May-23 17:30N 28°10' W 015°24'0 0.0
2018-May-23 17:01N 28°10' W 015°24'0 0.0
2018-May-23 16:30N 28°10' W 015°24'0 0.0
2018-May-23 16:00N 28°10' W 015°24'0 0.0
2018-May-23 15:30N 28°10' W 015°24'0 0.0
2018-May-23 15:00N 28°10' W 015°24'0 0.0
2018-May-23 14:30N 28°10' W 015°24'0 0.0
2018-May-23 14:01N 28°10' W 015°24'0 0.0
2018-May-23 13:30N 28°10' W 015°24'0 0.0
2018-May-23 12:58N 28°10' W 015°24'0 0.0
2018-May-23 12:30N 28°10' W 015°24'0 0.0
2018-May-23 12:00N 28°10' W 015°24'0 0.0
2018-May-23 11:30N 28°10' W 015°24'0 0.0
2018-May-23 11:00N 28°10' W 015°24'0 0.0
2018-May-23 10:28N 28°10' W 015°24'0 0.0
2018-May-23 10:00N 28°10' W 015°24'0 0.0
2018-May-23 09:30N 28°10' W 015°24'1 1.6
2018-May-23 09:00N 28°09' W 015°23'1020.8
2018-May-23 08:31N 28°15' W 015°33'1223.4
2018-May-23 08:00N 28°19' W 015°45'1223.8
2018-May-23 07:31N 28°23' W 015°58'1224.3
2018-May-23 07:00N 28°28' W 016°11'3 6.5
2018-May-23 06:30N 28°28' W 016°15'0 0.0
2018-May-23 06:00N 28°28' W 016°15'0 0.0
2018-May-23 05:30N 28°28' W 016°15'0 0.0
2018-May-23 05:00N 28°28' W 016°15'0 0.0
2018-May-23 04:30N 28°28' W 016°15'0 0.0
2018-May-23 04:00N 28°28' W 016°15'0 0.0
2018-May-23 03:29N 28°28' W 016°15'0 0.0
2018-May-23 03:00N 28°28' W 016°15'0 0.0
2018-May-23 02:30N 28°28' W 016°15'0 0.0
2018-May-23 02:00N 28°28' W 016°15'0 0.0
2018-May-23 01:30N 28°28' W 016°15'0 0.0
2018-May-23 01:00N 28°28' W 016°15'0 0.0
2018-May-23 00:30N 28°28' W 016°15'0 0.0
2018-May-23 00:00N 28°28' W 016°15'0 0.0
2018-May-22 23:30N 28°28' W 016°15'0 0.0
2018-May-22 23:00N 28°28' W 016°15'0 0.0
2018-May-22 22:30N 28°28' W 016°15'0 0.0
2018-May-22 22:00N 28°28' W 016°15'0 0.8
2018-May-22 21:30N 28°29' W 016°14'815.1
2018-May-22 21:01N 28°26' W 016°06'1223.3
2018-May-22 20:30N 28°22' W 015°54'1223.4
2018-May-22 20:01N 28°18' W 015°42'1223.2
2018-May-22 19:30N 28°14' W 015°29'612.2
2018-May-22 19:00N 28°09' W 015°24'0 0.2
2018-May-22 18:30N 28°10' W 015°24'0 0.0
2018-May-22 18:00N 28°10' W 015°24'0 0.0
2018-May-22 17:30N 28°10' W 015°24'0 0.0
2018-May-22 17:00N 28°10' W 015°24'0 0.0
2018-May-22 16:30N 28°10' W 015°24'0 0.0
2018-May-22 16:00N 28°10' W 015°24'0 0.0
2018-May-22 15:30N 28°10' W 015°24'0 0.0
2018-May-22 15:00N 28°10' W 015°24'0 0.0
2018-May-22 14:30N 28°10' W 015°24'0 0.0
2018-May-22 14:00N 28°10' W 015°24'0 0.0
2018-May-22 13:29N 28°10' W 015°24'2 4.7
2018-May-22 13:00N 28°10' W 015°21'1223.7
2018-May-22 12:30N 28°15' W 015°10'1224.1
2018-May-22 12:00N 28°21' W 014°57'1223.9
2018-May-22 11:30N 28°26' W 014°45'3923.9
2018-May-22 09:53N 28°44' W 014°06'923.9
2018-May-22 09:30N 28°47' W 013°56'1223.9
2018-May-22 09:01N 28°51' W 013°44'1220.6
2018-May-22 08:25N 28°58' W 013°32'0 1.1
2018-May-22 07:59N 28°58' W 013°32'0 0.0
2018-May-22 07:27N 28°58' W 013°32'0 0.0
2018-May-22 06:59N 28°58' W 013°32'0 0.0
2018-May-22 06:27N 28°58' W 013°32'0 0.0
2018-May-22 06:00N 28°58' W 013°32'0 0.2
2018-May-22 05:28N 28°58' W 013°32'511.5
2018-May-22 05:00N 28°55' W 013°36'5723.6
2018-May-22 02:35N 28°32' W 014°36'323.8
2018-May-22 02:28N 28°31' W 014°39'1123.6
2018-May-22 02:01N 28°26' W 014°50'1223.5
2018-May-22 01:31N 28°20' W 015°01'1223.2
2018-May-22 01:00N 28°14' W 015°13'1121.6
2018-May-22 00:30N 28°09' W 015°24'1 1.3
2018-May-22 00:00N 28°10' W 015°24'0 0.0
2018-May-21 23:30N 28°10' W 015°24'0 0.0
2018-May-21 23:01N 28°10' W 015°24'0 0.0
2018-May-21 22:30N 28°10' W 015°24'0 0.0
2018-May-21 21:58N 28°10' W 015°24'1 2.9
2018-May-21 21:30N 28°11' W 015°23'1223.4
2018-May-21 21:00N 28°15' W 015°35'1223.7
2018-May-21 20:31N 28°19' W 015°48'1223.8
2018-May-21 20:00N 28°24' W 016°00'1224.3
2018-May-21 19:30N 28°29' W 016°13'1 2.7
2018-May-21 19:00N 28°28' W 016°15'0 0.0
2018-May-21 18:30N 28°28' W 016°15'0 0.0
2018-May-21 18:00N 28°28' W 016°15'0 0.8
2018-May-21 17:31N 28°29' W 016°14'918.5
2018-May-21 17:01N 28°26' W 016°04'1223.8
2018-May-21 16:31N 28°21' W 015°52'1223.9
2018-May-21 16:01N 28°17' W 015°39'1223.6
2018-May-21 15:31N 28°14' W 015°26'5 9.0
2018-May-21 15:00N 28°10' W 015°24'0 0.0
2018-May-21 14:30N 28°10' W 015°24'0 0.0
2018-May-21 14:00N 28°10' W 015°24'0 0.0
2018-May-21 13:30N 28°10' W 015°24'0 0.0
2018-May-21 13:00N 28°10' W 015°24'0 0.0
2018-May-21 12:30N 28°10' W 015°24'0 0.0
2018-May-21 12:00N 28°10' W 015°24'0 0.0
2018-May-21 11:30N 28°10' W 015°24'0 0.0
2018-May-21 11:00N 28°10' W 015°24'0 0.0
2018-May-21 10:30N 28°10' W 015°24'0 0.0
2018-May-21 10:00N 28°10' W 015°24'0 0.3
2018-May-21 09:30N 28°09' W 015°24'3 6.1
2018-May-21 09:01N 28°12' W 015°25'1223.7
2018-May-21 08:30N 28°16' W 015°38'1223.6
2018-May-21 08:01N 28°20' W 015°50'1223.7
2018-May-21 07:31N 28°25' W 016°03'1020.9
2018-May-21 07:00N 28°29' W 016°14'1 1.6
2018-May-21 06:30N 28°28' W 016°15'0 0.0
2018-May-21 06:00N 28°28' W 016°15'0 0.0
2018-May-21 05:30N 28°28' W 016°15'0 0.0
2018-May-21 05:00N 28°28' W 016°15'0 0.0
2018-May-21 04:29N 28°28' W 016°15'0 0.0
2018-May-21 04:00N 28°28' W 016°15'0 0.0
2018-May-21 03:30N 28°28' W 016°15'0 0.0
2018-May-21 03:00N 28°28' W 016°15'0 0.0
2018-May-21 02:30N 28°28' W 016°15'0 0.0
2018-May-21 02:00N 28°28' W 016°15'0 0.0
2018-May-21 01:30N 28°28' W 016°15'0 0.0
2018-May-21 01:00N 28°28' W 016°15'0 0.0
2018-May-21 00:30N 28°28' W 016°15'0 0.0
2018-May-21 00:00N 28°28' W 016°15'3 5.7
2018-May-20 23:31N 28°28' W 016°11'1223.9
2018-May-20 23:01N 28°23' W 015°59'1223.9
2018-May-20 22:31N 28°19' W 015°46'1223.5
2018-May-20 22:01N 28°15' W 015°34'1121.8
2018-May-20 21:30N 28°10' W 015°23'1 2.4
2018-May-20 21:00N 28°10' W 015°24'0 0.0
2018-May-20 20:30N 28°10' W 015°24'0 0.0
2018-May-20 20:00N 28°10' W 015°24'0 0.6
2018-May-20 19:30N 28°09' W 015°24'510.1
2018-May-20 19:00N 28°11' W 015°19'1224.0
2018-May-20 18:31N 28°17' W 015°07'1224.0
2018-May-20 18:01N 28°22' W 014°55'1223.6
2018-May-20 17:30N 28°27' W 014°43'3923.6
2018-May-20 15:51N 28°45' W 014°03'1023.6
2018-May-20 15:26N 28°48' W 013°52'1023.6
2018-May-20 15:01N 28°52' W 013°42'1020.9
2018-May-20 14:30N 28°58' W 013°32'1 1.2
2018-May-20 14:00N 28°58' W 013°32'0 0.0
2018-May-20 13:30N 28°58' W 013°32'0 0.0
2018-May-20 12:58N 28°58' W 013°32'2 4.2
2018-May-20 12:30N 28°58' W 013°29'1224.5
2018-May-20 12:00N 29°08' W 013°21'  
2018-May-17 12:24N 28°47' W 015°50'820.9
2018-May-17 12:00N 28°41' W 015°56'1019.9
2018-May-17 11:30N 28°34' W 016°03'918.6
2018-May-17 11:00N 28°29' W 016°12'2 4.9
2018-May-17 10:31N 28°28' W 016°15'0 0.0
2018-May-17 10:00N 28°28' W 016°15'0 0.0
2018-May-17 09:30N 28°28' W 016°15'1 2.6
2018-May-17 09:00N 28°29' W 016°13'918.4
2018-May-17 08:30N 28°25' W 016°04'1020.1
2018-May-17 08:00N 28°21' W 015°53'28 8.2
2018-May-17 04:34N 28°10' W 015°24'0 0.1
2018-May-17 04:30N 28°10' W 015°24'0 0.0
2018-May-17 04:00N 28°10' W 015°24'0 0.0
2018-May-17 03:29N 28°10' W 015°24'0 0.0
2018-May-17 03:00N 28°10' W 015°24'0 0.0
2018-May-17 02:30N 28°10' W 015°24'0 0.0
2018-May-17 02:00N 28°10' W 015°24'0 0.0
2018-May-17 01:29N 28°10' W 015°24'0 0.0
2018-May-17 01:00N 28°10' W 015°24'0 0.0
2018-May-17 00:29N 28°10' W 015°24'0 0.0
2018-May-17 00:00N 28°10' W 015°24'0 0.0
2018-May-16 23:30N 28°10' W 015°24'0 0.0
2018-May-16 23:00N 28°10' W 015°24'0 0.0
2018-May-16 22:29N 28°10' W 015°24'0 0.0
2018-May-16 22:00N 28°10' W 015°24'0 0.0
2018-May-16 21:30N 28°10' W 015°24'0 0.0
2018-May-16 21:01N 28°10' W 015°24'0 0.0
2018-May-16 20:30N 28°10' W 015°24'0 0.0
2018-May-16 20:01N 28°10' W 015°24'0 0.0
2018-May-16 19:30N 28°10' W 015°24'0 0.0
2018-May-16 19:00N 28°10' W 015°24'0 0.0
2018-May-16 18:30N 28°10' W 015°24'0 0.0
2018-May-16 17:58N 28°10' W 015°24'0 0.0
2018-May-16 17:30N 28°10' W 015°24'0 0.0
2018-May-16 16:59N 28°10' W 015°24'0 0.0
2018-May-16 16:30N 28°10' W 015°24'0 0.0
2018-May-16 15:59N 28°10' W 015°24'2 4.8
2018-May-16 15:30N 28°10' W 015°21'1020.5
2018-May-16 15:00N 28°14' W 015°11'1020.8
2018-May-16 14:30N 28°19' W 015°01'1020.6
2018-May-16 14:00N 28°24' W 014°50'1020.3
2018-May-16 13:30N 28°29' W 014°40'11 1.0
2018-May-16 02:12N 28°34' W 014°29'418.3
2018-May-16 01:59N 28°32' W 014°33'918.2
2018-May-16 01:30N 28°28' W 014°42'917.8
2018-May-16 01:00N 28°24' W 014°51'918.5
2018-May-16 00:30N 28°20' W 015°00'918.6
2018-May-16 00:00N 28°16' W 015°10'918.4
2018-May-15 23:30N 28°12' W 015°19'5 9.8
2018-May-15 23:00N 28°10' W 015°24'0 0.0
2018-May-15 22:30N 28°10' W 015°24'0 0.0
2018-May-15 21:59N 28°10' W 015°24'0 0.0
2018-May-15 21:31N 28°10' W 015°24'0 0.0
2018-May-15 21:01N 28°10' W 015°24'0 0.0
2018-May-15 20:30N 28°10' W 015°24'0 0.0
2018-May-15 20:00N 28°10' W 015°24'0 0.0
2018-May-15 19:30N 28°10' W 015°24'0 0.0
2018-May-15 19:00N 28°10' W 015°24'0 0.0
2018-May-15 18:30N 28°10' W 015°24'0 0.0
2018-May-15 17:58N 28°10' W 015°24'0 0.0
2018-May-15 17:30N 28°10' W 015°24'0 0.0
2018-May-15 17:00N 28°10' W 015°24'0 0.0
2018-May-15 16:30N 28°10' W 015°24'0 0.3
2018-May-15 16:00N 28°09' W 015°24'511.0
2018-May-15 15:30N 28°11' W 015°18'1020.1
2018-May-15 15:00N 28°16' W 015°08'1020.1
2018-May-15 14:30N 28°20' W 014°58'1020.0
2018-May-15 14:00N 28°25' W 014°48'1119.6
2018-May-15 13:28N 28°30' W 014°37'2919.6
2018-May-15 11:58N 28°43' W 014°07'1019.5
2018-May-15 11:27N 28°47' W 013°57'1020.1
2018-May-15 10:58N 28°50' W 013°46'1020.4
2018-May-15 10:30N 28°55' W 013°36'611.1
2018-May-15 09:59N 28°58' W 013°32'0 0.0
2018-May-15 09:24N 28°58' W 013°32'0 0.0
2018-May-15 08:55N 28°58' W 013°32'0 0.0
2018-May-15 08:28N 28°58' W 013°32'0 0.0
2018-May-15 07:58N 28°58' W 013°32'0 0.0
2018-May-15 07:19N 28°58' W 013°32'0 0.0
2018-May-15 07:00N 28°58' W 013°32'0 0.0
2018-May-15 06:30N 28°58' W 013°32'0 0.0
2018-May-15 05:55N 28°58' W 013°32'0 1.0
2018-May-15 05:28N 28°58' W 013°32'5 9.8
2018-May-15 04:59N 28°55' W 013°36'1020.0
2018-May-15 04:30N 28°50' W 013°45'1518.8
2018-May-15 03:43N 28°46' W 014°02'2518.1
2018-May-15 02:20N 28°34' W 014°27'618.2
2018-May-15 02:00N 28°32' W 014°33'918.2
2018-May-15 01:30N 28°27' W 014°42'918.3
2018-May-15 00:59N 28°23' W 014°52'918.9
2018-May-15 00:30N 28°19' W 015°01'918.7
2018-May-15 00:00N 28°14' W 015°10'917.8
2018-May-14 23:30N 28°10' W 015°19'5 9.0
2018-May-14 23:00N 28°10' W 015°24'0 0.0
2018-May-14 22:30N 28°10' W 015°24'0 0.0
2018-May-14 22:00N 28°10' W 015°24'0 0.0
2018-May-14 21:30N 28°10' W 015°24'0 0.0
2018-May-14 21:00N 28°10' W 015°24'0 0.0
2018-May-14 20:30N 28°10' W 015°24'0 0.0
2018-May-14 20:00N 28°10' W 015°24'0 0.0
2018-May-14 19:30N 28°10' W 015°24'0 0.0
2018-May-14 19:00N 28°10' W 015°24'0 0.1
2018-May-14 18:30N 28°10' W 015°24'2 4.7
2018-May-14 18:00N 28°12' W 015°24'918.9
2018-May-14 17:31N 28°15' W 015°34'714.7
2018-May-14 17:01N 28°18' W 015°42'816.9
2018-May-14 16:31N 28°19' W 015°51'917.3
2018-May-14 16:01N 28°23' W 016°00'1219.5
2018-May-14 15:23N 28°28' W 016°13'2 4.3
2018-May-14 15:00N 28°28' W 016°15'0 0.0
2018-May-14 14:30N 28°28' W 016°15'0 0.0
2018-May-14 13:56N 28°28' W 016°15'0 0.0
2018-May-14 13:25N 28°28' W 016°15'0 0.0
2018-May-14 13:00N 28°28' W 016°15'0 0.0
2018-May-14 12:31N 28°28' W 016°15'0 0.0
2018-May-14 12:01N 28°28' W 016°15'0 0.0
2018-May-14 11:31N 28°28' W 016°15'0 0.0
2018-May-14 11:00N 28°28' W 016°15'0 0.0
2018-May-14 10:30N 28°28' W 016°15'0 0.0
2018-May-14 10:00N 28°28' W 016°15'0 0.0
2018-May-14 09:31N 28°28' W 016°15'0 0.0
2018-May-14 09:01N 28°28' W 016°15'  

Dump ship's entire track history